sensor_id;sensor_type;location;lat;lon;timestamp;temperature;humidity
11736;DHT22;5924;51.398;7.088;2023-04-25T00:00:46;5.40;99.90
11736;DHT22;5924;51.398;7.088;2023-04-25T00:03:11;5.50;99.90
11736;DHT22;5924;51.398;7.088;2023-04-25T00:05:37;5.50;99.90
11736;DHT22;5924;51.398;7.088;2023-04-25T00:08:04;5.60;99.90
11736;DHT22;5924;51.398;7.088;2023-04-25T00:10:30;5.60;99.90
11736;DHT22;5924;51.398;7.088;2023-04-25T00:12:56;5.70;99.90
11736;DHT22;5924;51.398;7.088;2023-04-25T00:15:22;5.80;99.90
11736;DHT22;5924;51.398;7.088;2023-04-25T00:17:49;5.90;99.90
11736;DHT22;5924;51.398;7.088;2023-04-25T00:20:15;5.90;99.90
11736;DHT22;5924;51.398;7.088;2023-04-25T00:22:41;5.90;99.90
11736;DHT22;5924;51.398;7.088;2023-04-25T00:25:07;6.00;99.90
11736;DHT22;5924;51.398;7.088;2023-04-25T00:27:33;5.90;99.90
11736;DHT22;5924;51.398;7.088;2023-04-25T00:29:58;7.50;99.90
11736;DHT22;5924;51.398;7.088;2023-04-25T00:32:24;8.70;99.90
11736;DHT22;5924;51.398;7.088;2023-04-25T00:34:50;6.10;99.90
11736;DHT22;5924;51.398;7.088;2023-04-25T00:37:16;6.10;99.90
11736;DHT22;5924;51.398;7.088;2023-04-25T00:39:41;6.10;99.90
11736;DHT22;5924;51.398;7.088;2023-04-25T00:42:08;6.10;99.90
11736;DHT22;5924;51.398;7.088;2023-04-25T00:44:34;6.00;99.90
11736;DHT22;5924;51.398;7.088;2023-04-25T00:47:02;6.10;99.90
11736;DHT22;5924;51.398;7.088;2023-04-25T00:49:27;6.10;99.90
11736;DHT22;5924;51.398;7.088;2023-04-25T00:51:53;6.10;99.90
11736;DHT22;5924;51.398;7.088;2023-04-25T00:54:19;6.10;99.90
11736;DHT22;5924;51.398;7.088;2023-04-25T00:56:45;6.10;99.90
11736;DHT22;5924;51.398;7.088;2023-04-25T00:59:11;6.10;99.90
11736;DHT22;5924;51.398;7.088;2023-04-25T01:01:38;6.20;99.90
11736;DHT22;5924;51.398;7.088;2023-04-25T01:04:04;6.20;99.90
11736;DHT22;5924;51.398;7.088;2023-04-25T01:06:30;6.10;99.90
11736;DHT22;5924;51.398;7.088;2023-04-25T01:08:57;6.20;99.90
11736;DHT22;5924;51.398;7.088;2023-04-25T01:11:24;6.20;99.90
11736;DHT22;5924;51.398;7.088;2023-04-25T01:13:50;6.10;99.90
11736;DHT22;5924;51.398;7.088;2023-04-25T01:16:16;6.10;99.90
11736;DHT22;5924;51.398;7.088;2023-04-25T01:18:41;6.10;99.90
11736;DHT22;5924;51.398;7.088;2023-04-25T01:21:11;6.20;99.90
11736;DHT22;5924;51.398;7.088;2023-04-25T01:23:40;6.20;99.90
11736;DHT22;5924;51.398;7.088;2023-04-25T01:26:06;6.20;99.90
11736;DHT22;5924;51.398;7.088;2023-04-25T01:28:34;6.20;99.90
11736;DHT22;5924;51.398;7.088;2023-04-25T01:31:01;6.20;99.90
11736;DHT22;5924;51.398;7.088;2023-04-25T01:33:26;6.10;99.90
11736;DHT22;5924;51.398;7.088;2023-04-25T01:35:52;6.10;99.90
11736;DHT22;5924;51.398;7.088;2023-04-25T01:38:18;6.10;99.90
11736;DHT22;5924;51.398;7.088;2023-04-25T01:40:45;7.20;99.90
11736;DHT22;5924;51.398;7.088;2023-04-25T01:43:11;6.20;99.90
11736;DHT22;5924;51.398;7.088;2023-04-25T01:45:38;6.20;99.90
11736;DHT22;5924;51.398;7.088;2023-04-25T01:48:07;6.20;99.90
11736;DHT22;5924;51.398;7.088;2023-04-25T01:50:33;6.20;99.90
11736;DHT22;5924;51.398;7.088;2023-04-25T01:52:59;6.20;99.90
11736;DHT22;5924;51.398;7.088;2023-04-25T01:55:25;6.20;99.90
11736;DHT22;5924;51.398;7.088;2023-04-25T01:57:51;6.20;99.90
11736;DHT22;5924;51.398;7.088;2023-04-25T02:00:17;6.10;99.90
11736;DHT22;5924;51.398;7.088;2023-04-25T02:02:43;6.20;99.90
11736;DHT22;5924;51.398;7.088;2023-04-25T02:05:08;6.10;99.90
11736;DHT22;5924;51.398;7.088;2023-04-25T02:07:34;6.10;99.90
11736;DHT22;5924;51.398;7.088;2023-04-25T02:10:00;6.20;99.90
11736;DHT22;5924;51.398;7.088;2023-04-25T02:12:26;6.10;99.90
11736;DHT22;5924;51.398;7.088;2023-04-25T02:14:52;6.10;99.90
11736;DHT22;5924;51.398;7.088;2023-04-25T02:17:18;6.10;99.90
11736;DHT22;5924;51.398;7.088;2023-04-25T02:19:44;6.10;99.90
11736;DHT22;5924;51.398;7.088;2023-04-25T02:22:10;6.10;99.90
11736;DHT22;5924;51.398;7.088;2023-04-25T02:24:36;6.10;99.90
11736;DHT22;5924;51.398;7.088;2023-04-25T02:27:01;6.10;99.90
11736;DHT22;5924;51.398;7.088;2023-04-25T02:29:28;6.10;99.90
11736;DHT22;5924;51.398;7.088;2023-04-25T02:31:54;6.00;99.90
11736;DHT22;5924;51.398;7.088;2023-04-25T02:34:20;6.10;99.90
11736;DHT22;5924;51.398;7.088;2023-04-25T02:36:48;6.00;99.90
11736;DHT22;5924;51.398;7.088;2023-04-25T02:39:14;6.00;99.90
11736;DHT22;5924;51.398;7.088;2023-04-25T02:41:39;8.90;99.90
11736;DHT22;5924;51.398;7.088;2023-04-25T02:44:05;6.00;99.90
11736;DHT22;5924;51.398;7.088;2023-04-25T02:46:30;6.00;99.90
11736;DHT22;5924;51.398;7.088;2023-04-25T02:48:56;6.00;99.90
11736;DHT22;5924;51.398;7.088;2023-04-25T02:51:22;6.00;99.90
11736;DHT22;5924;51.398;7.088;2023-04-25T02:53:47;5.90;99.90
11736;DHT22;5924;51.398;7.088;2023-04-25T02:56:13;6.00;99.90
11736;DHT22;5924;51.398;7.088;2023-04-25T02:58:39;6.00;99.90
11736;DHT22;5924;51.398;7.088;2023-04-25T03:01:05;6.10;99.90
11736;DHT22;5924;51.398;7.088;2023-04-25T03:03:30;5.90;99.90
11736;DHT22;5924;51.398;7.088;2023-04-25T03:05:56;5.90;99.90
11736;DHT22;5924;51.398;7.088;2023-04-25T03:08:22;5.90;99.90
11736;DHT22;5924;51.398;7.088;2023-04-25T03:10:48;6.00;99.90
11736;DHT22;5924;51.398;7.088;2023-04-25T03:13:15;5.90;99.90
11736;DHT22;5924;51.398;7.088;2023-04-25T03:15:41;5.80;99.90
11736;DHT22;5924;51.398;7.088;2023-04-25T03:18:06;5.70;99.90
11736;DHT22;5924;51.398;7.088;2023-04-25T03:20:32;5.60;99.90
11736;DHT22;5924;51.398;7.088;2023-04-25T03:22:58;5.60;99.90
11736;DHT22;5924;51.398;7.088;2023-04-25T03:25:23;5.50;99.90
11736;DHT22;5924;51.398;7.088;2023-04-25T03:27:49;5.50;99.90
11736;DHT22;5924;51.398;7.088;2023-04-25T03:30:15;5.50;99.90
11736;DHT22;5924;51.398;7.088;2023-04-25T03:32:40;5.50;99.90
11736;DHT22;5924;51.398;7.088;2023-04-25T03:35:06;5.40;99.90
11736;DHT22;5924;51.398;7.088;2023-04-25T03:37:32;5.50;99.90
11736;DHT22;5924;51.398;7.088;2023-04-25T03:39:57;5.50;99.90
11736;DHT22;5924;51.398;7.088;2023-04-25T03:42:23;3.40;99.90
11736;DHT22;5924;51.398;7.088;2023-04-25T03:44:49;5.50;99.90
11736;DHT22;5924;51.398;7.088;2023-04-25T03:47:15;5.40;99.90
11736;DHT22;5924;51.398;7.088;2023-04-25T03:49:41;5.50;99.90
11736;DHT22;5924;51.398;7.088;2023-04-25T03:52:07;5.40;99.90
11736;DHT22;5924;51.398;7.088;2023-04-25T03:54:32;5.50;99.90
11736;DHT22;5924;51.398;7.088;2023-04-25T03:56:58;5.40;99.90
11736;DHT22;5924;51.398;7.088;2023-04-25T03:59:24;5.50;99.90
11736;DHT22;5924;51.398;7.088;2023-04-25T04:01:51;7.40;99.90
11736;DHT22;5924;51.398;7.088;2023-04-25T04:04:18;5.40;99.90
11736;DHT22;5924;51.398;7.088;2023-04-25T04:06:43;4.60;99.90
11736;DHT22;5924;51.398;7.088;2023-04-25T04:09:09;5.50;99.90
11736;DHT22;5924;51.398;7.088;2023-04-25T04:11:37;5.50;99.90
11736;DHT22;5924;51.398;7.088;2023-04-25T04:14:05;5.50;99.90
11736;DHT22;5924;51.398;7.088;2023-04-25T04:16:31;5.50;99.90
11736;DHT22;5924;51.398;7.088;2023-04-25T04:18:56;5.60;99.90
11736;DHT22;5924;51.398;7.088;2023-04-25T04:21:22;5.60;99.90
11736;DHT22;5924;51.398;7.088;2023-04-25T04:23:48;5.60;99.90
11736;DHT22;5924;51.398;7.088;2023-04-25T04:26:14;5.60;99.90
11736;DHT22;5924;51.398;7.088;2023-04-25T04:28:42;5.60;99.90
11736;DHT22;5924;51.398;7.088;2023-04-25T04:31:09;5.60;99.90
11736;DHT22;5924;51.398;7.088;2023-04-25T04:33:35;5.60;99.90
11736;DHT22;5924;51.398;7.088;2023-04-25T04:36:02;5.60;99.90
11736;DHT22;5924;51.398;7.088;2023-04-25T04:38:28;5.50;99.90
11736;DHT22;5924;51.398;7.088;2023-04-25T04:40:54;5.50;99.90
11736;DHT22;5924;51.398;7.088;2023-04-25T04:43:20;5.60;99.90
11736;DHT22;5924;51.398;7.088;2023-04-25T04:45:45;5.60;99.90
11736;DHT22;5924;51.398;7.088;2023-04-25T04:48:11;5.50;99.90
11736;DHT22;5924;51.398;7.088;2023-04-25T04:50:39;5.50;99.90
11736;DHT22;5924;51.398;7.088;2023-04-25T04:53:05;5.50;99.90
11736;DHT22;5924;51.398;7.088;2023-04-25T04:55:31;5.50;99.90
11736;DHT22;5924;51.398;7.088;2023-04-25T04:57:56;5.50;99.90
11736;DHT22;5924;51.398;7.088;2023-04-25T05:00:22;5.60;99.90
11736;DHT22;5924;51.398;7.088;2023-04-25T05:02:48;5.50;99.90
11736;DHT22;5924;51.398;7.088;2023-04-25T05:05:13;5.50;99.90
11736;DHT22;5924;51.398;7.088;2023-04-25T05:07:39;6.10;99.90
11736;DHT22;5924;51.398;7.088;2023-04-25T05:10:05;5.50;99.90
11736;DHT22;5924;51.398;7.088;2023-04-25T05:12:31;5.40;99.90
11736;DHT22;5924;51.398;7.088;2023-04-25T05:14:57;5.30;99.90
11736;DHT22;5924;51.398;7.088;2023-04-25T05:17:22;5.30;99.90
11736;DHT22;5924;51.398;7.088;2023-04-25T05:19:48;5.40;99.90
11736;DHT22;5924;51.398;7.088;2023-04-25T05:22:13;5.40;99.90
11736;DHT22;5924;51.398;7.088;2023-04-25T05:24:39;5.40;99.90
11736;DHT22;5924;51.398;7.088;2023-04-25T05:27:05;5.50;99.90
11736;DHT22;5924;51.398;7.088;2023-04-25T05:29:31;5.50;99.90
11736;DHT22;5924;51.398;7.088;2023-04-25T05:31:58;5.50;99.90
11736;DHT22;5924;51.398;7.088;2023-04-25T05:34:23;5.50;99.90
11736;DHT22;5924;51.398;7.088;2023-04-25T05:36:49;5.50;99.90
11736;DHT22;5924;51.398;7.088;2023-04-25T05:39:16;5.50;99.90
11736;DHT22;5924;51.398;7.088;2023-04-25T05:41:44;5.50;99.90
11736;DHT22;5924;51.398;7.088;2023-04-25T05:44:10;5.60;99.90
11736;DHT22;5924;51.398;7.088;2023-04-25T05:46:36;5.70;99.90
11736;DHT22;5924;51.398;7.088;2023-04-25T05:49:01;5.90;99.90
11736;DHT22;5924;51.398;7.088;2023-04-25T05:51:27;5.90;99.90
11736;DHT22;5924;51.398;7.088;2023-04-25T05:53:53;6.00;99.90
11736;DHT22;5924;51.398;7.088;2023-04-25T05:56:18;6.00;99.90
11736;DHT22;5924;51.398;7.088;2023-04-25T05:58:44;6.00;99.90
11736;DHT22;5924;51.398;7.088;2023-04-25T06:01:10;6.10;99.90
11736;DHT22;5924;51.398;7.088;2023-04-25T06:03:35;6.10;99.90
11736;DHT22;5924;51.398;7.088;2023-04-25T06:06:03;6.20;99.90
11736;DHT22;5924;51.398;7.088;2023-04-25T06:08:29;6.20;99.90
11736;DHT22;5924;51.398;7.088;2023-04-25T06:10:54;6.20;99.90
11736;DHT22;5924;51.398;7.088;2023-04-25T06:13:21;6.30;99.90
11736;DHT22;5924;51.398;7.088;2023-04-25T06:15:46;6.40;99.90
11736;DHT22;5924;51.398;7.088;2023-04-25T06:18:12;6.50;99.90
11736;DHT22;5924;51.398;7.088;2023-04-25T06:20:38;6.60;99.90
11736;DHT22;5924;51.398;7.088;2023-04-25T06:23:03;6.60;99.90
11736;DHT22;5924;51.398;7.088;2023-04-25T06:25:29;6.70;99.90
11736;DHT22;5924;51.398;7.088;2023-04-25T06:27:55;6.60;99.90
11736;DHT22;5924;51.398;7.088;2023-04-25T06:30:20;6.50;99.90
11736;DHT22;5924;51.398;7.088;2023-04-25T06:32:50;6.40;99.90
11736;DHT22;5924;51.398;7.088;2023-04-25T06:35:15;6.40;99.90
11736;DHT22;5924;51.398;7.088;2023-04-25T06:37:41;6.40;99.90
11736;DHT22;5924;51.398;7.088;2023-04-25T06:40:07;6.50;99.90
11736;DHT22;5924;51.398;7.088;2023-04-25T06:42:33;6.40;99.90
11736;DHT22;5924;51.398;7.088;2023-04-25T06:44:59;6.40;99.90
11736;DHT22;5924;51.398;7.088;2023-04-25T06:47:24;6.30;99.90
11736;DHT22;5924;51.398;7.088;2023-04-25T06:49:50;6.20;99.90
11736;DHT22;5924;51.398;7.088;2023-04-25T06:52:16;6.30;99.90
11736;DHT22;5924;51.398;7.088;2023-04-25T06:54:43;6.50;99.90
11736;DHT22;5924;51.398;7.088;2023-04-25T06:57:09;6.70;99.90
11736;DHT22;5924;51.398;7.088;2023-04-25T06:59:34;7.00;99.90
11736;DHT22;5924;51.398;7.088;2023-04-25T07:02:00;7.10;99.90
11736;DHT22;5924;51.398;7.088;2023-04-25T07:04:26;7.10;99.90
11736;DHT22;5924;51.398;7.088;2023-04-25T07:06:51;7.10;99.90
11736;DHT22;5924;51.398;7.088;2023-04-25T07:09:17;7.10;99.90
11736;DHT22;5924;51.398;7.088;2023-04-25T07:11:42;6.90;99.90
11736;DHT22;5924;51.398;7.088;2023-04-25T07:14:08;6.70;99.90
11736;DHT22;5924;51.398;7.088;2023-04-25T07:16:34;6.50;99.90
11736;DHT22;5924;51.398;7.088;2023-04-25T07:18:59;6.40;99.90
11736;DHT22;5924;51.398;7.088;2023-04-25T07:21:25;6.20;99.90
11736;DHT22;5924;51.398;7.088;2023-04-25T07:23:51;6.20;99.90
11736;DHT22;5924;51.398;7.088;2023-04-25T07:26:17;6.30;99.90
11736;DHT22;5924;51.398;7.088;2023-04-25T07:28:43;6.40;99.90
11736;DHT22;5924;51.398;7.088;2023-04-25T07:31:08;6.50;99.90
11736;DHT22;5924;51.398;7.088;2023-04-25T07:33:34;6.70;99.90
11736;DHT22;5924;51.398;7.088;2023-04-25T07:36:00;6.80;99.90
11736;DHT22;5924;51.398;7.088;2023-04-25T07:38:26;7.00;99.90
11736;DHT22;5924;51.398;7.088;2023-04-25T07:40:51;7.20;99.90
11736;DHT22;5924;51.398;7.088;2023-04-25T07:43:17;7.30;99.90
11736;DHT22;5924;51.398;7.088;2023-04-25T07:45:44;6.40;99.90
11736;DHT22;5924;51.398;7.088;2023-04-25T07:48:10;7.50;99.90
11736;DHT22;5924;51.398;7.088;2023-04-25T07:50:36;7.60;99.90
11736;DHT22;5924;51.398;7.088;2023-04-25T07:53:01;7.60;99.90
11736;DHT22;5924;51.398;7.088;2023-04-25T07:55:27;7.50;99.90
11736;DHT22;5924;51.398;7.088;2023-04-25T07:57:53;7.40;99.90
11736;DHT22;5924;51.398;7.088;2023-04-25T08:00:19;7.30;99.90
11736;DHT22;5924;51.398;7.088;2023-04-25T08:02:45;7.30;99.90
11736;DHT22;5924;51.398;7.088;2023-04-25T08:05:10;7.40;99.90
11736;DHT22;5924;51.398;7.088;2023-04-25T08:07:40;7.70;99.90
11736;DHT22;5924;51.398;7.088;2023-04-25T08:10:06;8.10;99.90
11736;DHT22;5924;51.398;7.088;2023-04-25T08:12:32;8.40;99.90
11736;DHT22;5924;51.398;7.088;2023-04-25T08:14:58;8.60;99.90
11736;DHT22;5924;51.398;7.088;2023-04-25T08:17:24;8.90;99.90
11736;DHT22;5924;51.398;7.088;2023-04-25T08:19:49;8.90;99.90
11736;DHT22;5924;51.398;7.088;2023-04-25T08:22:15;8.70;99.90
11736;DHT22;5924;51.398;7.088;2023-04-25T08:24:42;8.60;99.90
11736;DHT22;5924;51.398;7.088;2023-04-25T08:27:07;8.70;99.90
11736;DHT22;5924;51.398;7.088;2023-04-25T08:29:34;9.00;99.90
11736;DHT22;5924;51.398;7.088;2023-04-25T08:32:00;9.00;99.90
11736;DHT22;5924;51.398;7.088;2023-04-25T08:34:26;8.80;99.90
11736;DHT22;5924;51.398;7.088;2023-04-25T08:36:52;8.90;99.90
11736;DHT22;5924;51.398;7.088;2023-04-25T08:39:18;9.00;99.90
11736;DHT22;5924;51.398;7.088;2023-04-25T08:41:43;9.10;99.90
11736;DHT22;5924;51.398;7.088;2023-04-25T08:44:10;9.30;99.90
11736;DHT22;5924;51.398;7.088;2023-04-25T08:46:38;9.00;99.90
11736;DHT22;5924;51.398;7.088;2023-04-25T08:49:08;9.40;99.90
11736;DHT22;5924;51.398;7.088;2023-04-25T08:51:44;9.50;99.90
11736;DHT22;5924;51.398;7.088;2023-04-25T08:54:13;9.30;99.90
11736;DHT22;5924;51.398;7.088;2023-04-25T08:56:41;8.90;99.90
11736;DHT22;5924;51.398;7.088;2023-04-25T08:59:10;8.60;99.90
11736;DHT22;5924;51.398;7.088;2023-04-25T09:01:36;8.40;99.90
11736;DHT22;5924;51.398;7.088;2023-04-25T09:04:02;8.30;99.90
11736;DHT22;5924;51.398;7.088;2023-04-25T09:06:29;8.20;99.90
11736;DHT22;5924;51.398;7.088;2023-04-25T09:09:05;8.40;99.90
11736;DHT22;5924;51.398;7.088;2023-04-25T09:11:31;8.60;99.90
11736;DHT22;5924;51.398;7.088;2023-04-25T09:14:15;8.90;99.90
11736;DHT22;5924;51.398;7.088;2023-04-25T09:16:57;9.00;99.90
11736;DHT22;5924;51.398;7.088;2023-04-25T09:21:54;9.30;99.90
11736;DHT22;5924;51.398;7.088;2023-04-25T09:27:05;9.90;99.90
11736;DHT22;5924;51.398;7.088;2023-04-25T09:29:35;10.20;99.90
11736;DHT22;5924;51.398;7.088;2023-04-25T09:32:24;10.00;99.90
11736;DHT22;5924;51.398;7.088;2023-04-25T09:34:52;10.00;99.90
11736;DHT22;5924;51.398;7.088;2023-04-25T09:39:48;10.20;99.90
11736;DHT22;5924;51.398;7.088;2023-04-25T09:42:15;10.20;99.90
11736;DHT22;5924;51.398;7.088;2023-04-25T09:44:43;10.10;99.90
11736;DHT22;5924;51.398;7.088;2023-04-25T09:47:10;10.20;99.90
11736;DHT22;5924;51.398;7.088;2023-04-25T09:49:39;10.20;99.90
11736;DHT22;5924;51.398;7.088;2023-04-25T09:52:06;10.20;99.90
11736;DHT22;5924;51.398;7.088;2023-04-25T09:54:32;10.50;99.90
11736;DHT22;5924;51.398;7.088;2023-04-25T09:57:02;10.50;99.90
11736;DHT22;5924;51.398;7.088;2023-04-25T09:59:31;10.50;99.90
11736;DHT22;5924;51.398;7.088;2023-04-25T10:01:59;10.50;99.90
11736;DHT22;5924;51.398;7.088;2023-04-25T10:04:26;10.70;99.90
11736;DHT22;5924;51.398;7.088;2023-04-25T10:06:54;9.20;99.90
11736;DHT22;5924;51.398;7.088;2023-04-25T10:09:25;10.70;99.90
11736;DHT22;5924;51.398;7.088;2023-04-25T10:11:51;10.60;99.90
11736;DHT22;5924;51.398;7.088;2023-04-25T10:14:18;10.50;99.90
11736;DHT22;5924;51.398;7.088;2023-04-25T10:16:45;10.40;99.90
11736;DHT22;5924;51.398;7.088;2023-04-25T10:19:11;10.30;99.90
11736;DHT22;5924;51.398;7.088;2023-04-25T10:21:46;10.40;99.90
11736;DHT22;5924;51.398;7.088;2023-04-25T10:24:14;10.60;99.90
11736;DHT22;5924;51.398;7.088;2023-04-25T10:26:40;11.00;99.90
11736;DHT22;5924;51.398;7.088;2023-04-25T10:29:06;11.10;99.90
11736;DHT22;5924;51.398;7.088;2023-04-25T10:31:32;10.90;99.90
11736;DHT22;5924;51.398;7.088;2023-04-25T10:33:59;10.80;99.90
11736;DHT22;5924;51.398;7.088;2023-04-25T10:36:26;10.50;99.90
11736;DHT22;5924;51.398;7.088;2023-04-25T10:38:58;10.20;99.90
11736;DHT22;5924;51.398;7.088;2023-04-25T10:41:28;10.00;99.90
11736;DHT22;5924;51.398;7.088;2023-04-25T10:44:00;9.90;99.90
11736;DHT22;5924;51.398;7.088;2023-04-25T10:46:28;10.10;99.90
11736;DHT22;5924;51.398;7.088;2023-04-25T10:49:00;10.40;99.90
11736;DHT22;5924;51.398;7.088;2023-04-25T10:51:31;10.80;99.90
11736;DHT22;5924;51.398;7.088;2023-04-25T10:56:31;10.70;99.90
11736;DHT22;5924;51.398;7.088;2023-04-25T11:01:41;10.00;99.90
11736;DHT22;5924;51.398;7.088;2023-04-25T11:07:00;9.50;99.90
11736;DHT22;5924;51.398;7.088;2023-04-25T11:09:28;9.20;99.90
11736;DHT22;5924;51.398;7.088;2023-04-25T11:11:56;8.90;99.90
11736;DHT22;5924;51.398;7.088;2023-04-25T11:14:22;8.60;99.90
11736;DHT22;5924;51.398;7.088;2023-04-25T11:16:56;8.50;99.90
11736;DHT22;5924;51.398;7.088;2023-04-25T11:19:22;8.60;99.90
11736;DHT22;5924;51.398;7.088;2023-04-25T11:21:48;8.60;99.90
11736;DHT22;5924;51.398;7.088;2023-04-25T11:24:16;8.60;99.90
11736;DHT22;5924;51.398;7.088;2023-04-25T11:26:42;8.50;99.90
11736;DHT22;5924;51.398;7.088;2023-04-25T11:29:08;8.70;99.90
11736;DHT22;5924;51.398;7.088;2023-04-25T11:31:34;8.70;99.90
11736;DHT22;5924;51.398;7.088;2023-04-25T11:34:00;8.90;99.90
11736;DHT22;5924;51.398;7.088;2023-04-25T11:36:45;9.00;99.90
11736;DHT22;5924;51.398;7.088;2023-04-25T11:39:12;9.10;99.90
11736;DHT22;5924;51.398;7.088;2023-04-25T11:41:41;9.20;99.90
11736;DHT22;5924;51.398;7.088;2023-04-25T11:44:07;9.40;99.90
11736;DHT22;5924;51.398;7.088;2023-04-25T11:46:50;9.50;99.90
11736;DHT22;5924;51.398;7.088;2023-04-25T11:49:16;9.80;99.90
11736;DHT22;5924;51.398;7.088;2023-04-25T11:52:06;9.80;99.90
11736;DHT22;5924;51.398;7.088;2023-04-25T11:54:35;10.10;99.90
11736;DHT22;5924;51.398;7.088;2023-04-25T11:57:01;10.40;99.90
11736;DHT22;5924;51.398;7.088;2023-04-25T11:59:26;10.80;99.90
11736;DHT22;5924;51.398;7.088;2023-04-25T12:01:53;11.20;99.90
11736;DHT22;5924;51.398;7.088;2023-04-25T12:04:24;11.50;99.90
11736;DHT22;5924;51.398;7.088;2023-04-25T12:06:51;11.90;99.90
11736;DHT22;5924;51.398;7.088;2023-04-25T12:09:19;12.20;99.90
11736;DHT22;5924;51.398;7.088;2023-04-25T12:11:57;12.40;99.90
11736;DHT22;5924;51.398;7.088;2023-04-25T12:14:31;11.50;99.90
11736;DHT22;5924;51.398;7.088;2023-04-25T12:16:59;10.90;99.90
11736;DHT22;5924;51.398;7.088;2023-04-25T12:19:26;10.40;99.90
11736;DHT22;5924;51.398;7.088;2023-04-25T12:21:52;10.10;99.90
11736;DHT22;5924;51.398;7.088;2023-04-25T12:24:21;9.90;99.90
11736;DHT22;5924;51.398;7.088;2023-04-25T12:29:28;9.50;99.90
11736;DHT22;5924;51.398;7.088;2023-04-25T12:31:55;9.40;99.90
11736;DHT22;5924;51.398;7.088;2023-04-25T12:34:22;9.50;99.90
11736;DHT22;5924;51.398;7.088;2023-04-25T12:36:48;9.50;99.90
11736;DHT22;5924;51.398;7.088;2023-04-25T12:39:19;9.50;99.90
11736;DHT22;5924;51.398;7.088;2023-04-25T12:41:45;9.50;99.90
11736;DHT22;5924;51.398;7.088;2023-04-25T12:44:12;9.40;99.90
11736;DHT22;5924;51.398;7.088;2023-04-25T12:46:38;10.00;99.90
11736;DHT22;5924;51.398;7.088;2023-04-25T12:49:04;9.40;99.90
11736;DHT22;5924;51.398;7.088;2023-04-25T12:51:30;9.50;99.90
11736;DHT22;5924;51.398;7.088;2023-04-25T12:53:58;9.70;99.90
11736;DHT22;5924;51.398;7.088;2023-04-25T12:56:24;10.60;99.90
11736;DHT22;5924;51.398;7.088;2023-04-25T12:58:51;12.30;99.90
11736;DHT22;5924;51.398;7.088;2023-04-25T13:01:17;13.50;99.90
11736;DHT22;5924;51.398;7.088;2023-04-25T13:03:43;14.50;99.90
11736;DHT22;5924;51.398;7.088;2023-04-25T13:06:08;15.10;97.10
11736;DHT22;5924;51.398;7.088;2023-04-25T13:08:34;16.00;95.60
11736;DHT22;5924;51.398;7.088;2023-04-25T13:11:02;16.80;95.30
11736;DHT22;5924;51.398;7.088;2023-04-25T13:13:29;17.90;88.80
11736;DHT22;5924;51.398;7.088;2023-04-25T13:15:54;17.50;90.10
11736;DHT22;5924;51.398;7.088;2023-04-25T13:18:21;18.10;91.10
11736;DHT22;5924;51.398;7.088;2023-04-25T13:20:46;17.90;76.40
11736;DHT22;5924;51.398;7.088;2023-04-25T13:23:12;16.10;76.90
11736;DHT22;5924;51.398;7.088;2023-04-25T13:25:38;14.10;81.60
11736;DHT22;5924;51.398;7.088;2023-04-25T13:28:03;12.50;87.50
11736;DHT22;5924;51.398;7.088;2023-04-25T13:30:29;11.30;91.80
11736;DHT22;5924;51.398;7.088;2023-04-25T13:32:55;10.60;94.40
11736;DHT22;5924;51.398;7.088;2023-04-25T13:35:22;10.10;97.00
11736;DHT22;5924;51.398;7.088;2023-04-25T13:37:48;9.60;98.80
11736;DHT22;5924;51.398;7.088;2023-04-25T13:40:13;9.20;99.90
11736;DHT22;5924;51.398;7.088;2023-04-25T13:42:39;8.70;99.90
11736;DHT22;5924;51.398;7.088;2023-04-25T13:45:06;8.50;99.90
11736;DHT22;5924;51.398;7.088;2023-04-25T13:47:32;8.40;99.90
11736;DHT22;5924;51.398;7.088;2023-04-25T13:49:58;8.50;99.90
11736;DHT22;5924;51.398;7.088;2023-04-25T13:52:23;8.90;99.90
11736;DHT22;5924;51.398;7.088;2023-04-25T13:54:49;9.80;99.90
11736;DHT22;5924;51.398;7.088;2023-04-25T13:57:16;11.00;99.90
11736;DHT22;5924;51.398;7.088;2023-04-25T13:59:42;11.70;99.90
11736;DHT22;5924;51.398;7.088;2023-04-25T14:02:08;13.20;99.90
11736;DHT22;5924;51.398;7.088;2023-04-25T14:04:34;15.10;99.90
11736;DHT22;5924;51.398;7.088;2023-04-25T14:07:00;16.70;99.10
11736;DHT22;5924;51.398;7.088;2023-04-25T14:09:27;17.50;95.40
11736;DHT22;5924;51.398;7.088;2023-04-25T14:11:53;18.60;94.10
11736;DHT22;5924;51.398;7.088;2023-04-25T14:14:19;19.90;93.70
11736;DHT22;5924;51.398;7.088;2023-04-25T14:16:46;21.10;90.40
11736;DHT22;5924;51.398;7.088;2023-04-25T14:19:14;21.50;67.20
11736;DHT22;5924;51.398;7.088;2023-04-25T14:21:40;20.80;66.10
11736;DHT22;5924;51.398;7.088;2023-04-25T14:24:08;20.70;64.50
11736;DHT22;5924;51.398;7.088;2023-04-25T14:26:34;20.80;64.90
11736;DHT22;5924;51.398;7.088;2023-04-25T14:29:01;20.70;64.60
11736;DHT22;5924;51.398;7.088;2023-04-25T14:31:27;20.80;64.60
11736;DHT22;5924;51.398;7.088;2023-04-25T14:33:53;21.30;60.40
11736;DHT22;5924;51.398;7.088;2023-04-25T14:36:19;21.20;64.70
11736;DHT22;5924;51.398;7.088;2023-04-25T14:38:44;21.50;61.70
11736;DHT22;5924;51.398;7.088;2023-04-25T14:41:11;20.30;60.30
11736;DHT22;5924;51.398;7.088;2023-04-25T14:43:36;18.10;62.00
11736;DHT22;5924;51.398;7.088;2023-04-25T14:46:03;16.10;63.30
11736;DHT22;5924;51.398;7.088;2023-04-25T14:48:29;14.40;67.30
11736;DHT22;5924;51.398;7.088;2023-04-25T14:50:54;13.30;72.40
11736;DHT22;5924;51.398;7.088;2023-04-25T14:53:22;12.40;72.50
11736;DHT22;5924;51.398;7.088;2023-04-25T14:55:47;11.80;73.40
11736;DHT22;5924;51.398;7.088;2023-04-25T14:58:18;11.40;72.60
11736;DHT22;5924;51.398;7.088;2023-04-25T15:00:43;11.00;75.40
11736;DHT22;5924;51.398;7.088;2023-04-25T15:03:10;10.90;79.80
11736;DHT22;5924;51.398;7.088;2023-04-25T15:05:40;10.90;80.10
11736;DHT22;5924;51.398;7.088;2023-04-25T15:08:21;12.10;79.60
11736;DHT22;5924;51.398;7.088;2023-04-25T15:10:47;12.70;79.90
11736;DHT22;5924;51.398;7.088;2023-04-25T15:13:13;12.90;80.30
11736;DHT22;5924;51.398;7.088;2023-04-25T15:15:58;13.40;80.10
11736;DHT22;5924;51.398;7.088;2023-04-25T15:18:48;14.30;78.00
11736;DHT22;5924;51.398;7.088;2023-04-25T15:21:35;15.50;78.30
11736;DHT22;5924;51.398;7.088;2023-04-25T15:24:17;17.50;76.40
11736;DHT22;5924;51.398;7.088;2023-04-25T15:26:44;19.00;70.70
11736;DHT22;5924;51.398;7.088;2023-04-25T15:29:29;19.50;68.70
11736;DHT22;5924;51.398;7.088;2023-04-25T15:32:15;19.20;65.30
11736;DHT22;5924;51.398;7.088;2023-04-25T15:35:04;19.00;63.40
11736;DHT22;5924;51.398;7.088;2023-04-25T15:37:35;17.90;65.50
11736;DHT22;5924;51.398;7.088;2023-04-25T15:40:02;18.50;62.40
11736;DHT22;5924;51.398;7.088;2023-04-25T15:43:09;18.80;61.30
11736;DHT22;5924;51.398;7.088;2023-04-25T15:45:54;19.40;62.10
11736;DHT22;5924;51.398;7.088;2023-04-25T15:48:21;20.00;59.80
11736;DHT22;5924;51.398;7.088;2023-04-25T15:51:42;20.30;59.60
11736;DHT22;5924;51.398;7.088;2023-04-25T15:55:09;19.90;59.10
11736;DHT22;5924;51.398;7.088;2023-04-25T15:58:15;16.50;61.40
11736;DHT22;5924;51.398;7.088;2023-04-25T16:01:12;14.70;63.70
11736;DHT22;5924;51.398;7.088;2023-04-25T16:04:06;13.70;68.50
11736;DHT22;5924;51.398;7.088;2023-04-25T16:06:32;14.00;70.50
11736;DHT22;5924;51.398;7.088;2023-04-25T16:09:18;16.70;68.80
11736;DHT22;5924;51.398;7.088;2023-04-25T16:11:43;18.00;61.10
11736;DHT22;5924;51.398;7.088;2023-04-25T16:14:30;19.30;59.00
11736;DHT22;5924;51.398;7.088;2023-04-25T16:16:58;19.30;57.90
11736;DHT22;5924;51.398;7.088;2023-04-25T16:19:44;18.00;58.70